Time;durP1;ratioP1;P1;durP2;ratioP2;P2;SDS_P1;SDS_P2;PMS_P1;PMS_P2;Temp;Humidity;BMP_temperature;BMP_pressure;BME280_temperature;BME280_humidity;BME280_pressure;Samples;Min_cycle;Max_cycle;Signal;HPM_P1;HPM_P2
2024/01/31 00:00:08;;;;;;;;;;;;;;;;;;344261;28;1089;-82
2024/01/31 00:00:19;;;;;;;;;;;;;;;;;;344244;28;1264;-82
2024/01/31 00:00:31;;;;;;;;;;;;;;;;;;344271;28;987;-82
2024/01/31 00:00:41;;;;;;;;;;;;;;;;;;343025;28;1158;-82
2024/01/31 00:00:51;;;;;;;;;;;;;;;;;;342983;28;959;-82
2024/01/31 00:01:02;;;;;;;;;;;;;;;;;;343181;28;1367;-82
2024/01/31 00:01:15;;;;;;;;;;;;;;;;;;341300;28;1977;-82
2024/01/31 00:01:25;;;;;;;;;;;;;;;;;;341605;29;1168;-82
2024/01/31 00:01:36;;;;;;;;;;;;;;;;;;343467;28;1344;-82
2024/01/31 00:01:46;;;;;;;;;;;;;;;;;;342964;28;990;-82
2024/01/31 00:01:56;;;;;;;;;;;;;;;;;;345085;28;1181;-82
2024/01/31 00:02:06;;;;;;;;;;;;;;;;;;344352;28;955;-82
2024/01/31 00:02:17;;;;;;;;;;;;;;;;;;343622;28;1391;-82
2024/01/31 00:02:27;;;;;;;;;;;;;;;;;;343044;28;1173;-82
2024/01/31 00:02:37;;;;;;;;;;;;;;;;;;340976;29;1467;-82
2024/01/31 00:02:47;;;;;;;;;;;;;;;;;;340496;29;1019;-82
2024/01/31 00:02:58;;;;;;;;;;;;;;;;;;340848;28;1486;-82
2024/01/31 00:03:08;;;;;;;;;;;;;;;;;;341797;29;979;-82
2024/01/31 00:03:18;;;;;;;;;;;;;;;;;;340968;29;1393;-82
2024/01/31 00:03:28;;;;;;;;;;;;;;;;;;342958;28;1402;-82
2024/01/31 00:03:39;;;;;;;;;;;;;;;;;;342722;28;1324;-82
2024/01/31 00:03:49;;;;;;;;;;;;;;;;;;343146;28;1039;-82
2024/01/31 00:03:59;;;;;;;;;;;;;;;;;;342640;28;1391;-82
2024/01/31 00:04:10;;;;;;;;;;;;;;;;;;343192;28;1019;-82
2024/01/31 00:04:20;;;;;;;;;;;;;;;;;;342592;28;1225;-82
2024/01/31 00:04:30;;;;;;;;;;;;;;;;;;343112;28;1035;-82
2024/01/31 00:04:40;;;;;;;;;;;;;;;;;;342681;28;1336;-82
2024/01/31 00:04:51;;;;;;;;;;;;;;;;;;343144;28;817;-82
2024/01/31 00:05:01;;;;;;;;;;;;;;;;;;341539;28;1337;-82
2024/01/31 00:05:14;;;;;;;;;;;;;;;;;;344531;28;1238;-82
2024/01/31 00:05:24;;;;;;;;;;;;;;;;;;343478;28;1427;-82
2024/01/31 00:05:34;;;;;;;;;;;;;;;;;;345475;28;1397;-82
2024/01/31 00:05:44;;;;;;;;;;;;;;;;;;344069;28;1399;-82
2024/01/31 00:05:55;;;;;;;;;;;;;;;;;;342907;28;1548;-82
2024/01/31 00:06:05;;;;;;;;;;;;;;;;;;341705;29;987;-82
2024/01/31 00:06:15;;;;;;;;;;;;;;;;;;342092;28;1391;-82
2024/01/31 00:06:25;;;;;;;;;;;;;;;;;;342959;28;1010;-82
2024/01/31 00:06:36;;;;;;;;;;;;;;;;;;341478;29;1484;-82
2024/01/31 00:06:50;;;;;;;;;;;;;;;;;;342870;28;1240;-82
2024/01/31 00:07:00;;;;;;;;;;;;;;;;;;345607;28;1403;-82
2024/01/31 00:07:10;;;;;;;;;;;;;;;;;;345669;28;1301;-82
2024/01/31 00:07:20;;;;;;;;;;;;;;;;;;344337;28;1355;-82
2024/01/31 00:07:30;;;;;;;;;;;;;;;;;;346898;28;1552;-82
2024/01/31 00:07:41;;;;;;;;;;;;;;;;;;346492;28;1492;-82
2024/01/31 00:07:52;;;;;;;;;;;;;;;;;;345608;28;1030;-82
2024/01/31 00:08:02;;;;;;;;;;;;;;;;;;344459;28;895;-82
2024/01/31 00:08:12;;;;;;;;;;;;;;;;;;345553;28;1211;-82
2024/01/31 00:08:22;;;;;;;;;;;;;;;;;;345614;28;1173;-82
2024/01/31 00:08:32;;;;;;;;;;;;;;;;;;342872;28;1428;-82
2024/01/31 00:08:43;;;;;;;;;;;;;;;;;;343071;28;1395;-82
2024/01/31 00:08:54;;;;;;;;;;;;;;;;;;342753;28;1161;-82
2024/01/31 00:09:04;;;;;;;;;;;;;;;;;;345455;28;1653;-82
2024/01/31 00:09:14;;;;;;;;;;;;;;;;;;345606;28;1057;-82
2024/01/31 00:09:25;;;;;;;;;;;;;;;;;;343472;28;1398;-82
2024/01/31 00:09:35;;;;;;;;;;;;;;;;;;340865;28;1030;-82
2024/01/31 00:09:45;;;;;;;;;;;;;;;;;;343019;28;1434;-82
2024/01/31 00:09:55;;;;;;;;;;;;;;;;;;342802;28;1110;-82
2024/01/31 00:10:05;;;;;;;;;;;;;;;;;;343073;28;1562;-82
2024/01/31 00:10:16;;;;;;;;;;;;;;;;;;345606;28;1132;-82
2024/01/31 00:10:26;;;;;;;;;;;;;;;;;;345520;28;1454;-82
2024/01/31 00:10:36;;;;;;;;;;;;;;;;;;344183;28;1387;-82
2024/01/31 00:10:46;;;;;;;;;;;;;;;;;;344474;28;1556;-82
2024/01/31 00:10:57;;;;;;;;;;;;;;;;;;344306;28;1347;-82
2024/01/31 00:11:08;;;;;;;;;;;;;;;;;;344411;28;1604;-82
2024/01/31 00:11:19;;;;;;;;;;;;;;;;;;344468;28;1323;-82
2024/01/31 00:11:29;;;;;;;;;;;;;;;;;;340351;29;1320;-82
2024/01/31 00:11:39;;;;;;;;;;;;;;;;;;341817;28;1469;-82
2024/01/31 00:11:49;;;;;;;;;;;;;;;;;;344538;28;974;-83
2024/01/31 00:12:00;;;;;;;;;;;;;;;;;;342581;28;1351;-82
2024/01/31 00:12:10;;;;;;;;;;;;;;;;;;341773;29;979;-82
2024/01/31 00:12:20;;;;;;;;;;;;;;;;;;344407;28;1331;-82
2024/01/31 00:12:30;;;;;;;;;;;;;;;;;;343093;28;1399;-82
2024/01/31 00:12:40;;;;;;;;;;;;;;;;;;342788;28;1414;-82
2024/01/31 00:12:51;;;;;;;;;;;;;;;;;;340479;29;979;-81
2024/01/31 00:13:01;;;;;;;;;;;;;;;;;;340932;29;1407;-82
2024/01/31 00:13:11;;;;;;;;;;;;;;;;;;341648;28;996;-82
2024/01/31 00:13:21;;;;;;;;;;;;;;;;;;344115;28;1450;-82
2024/01/31 00:13:31;;;;;;;;;;;;;;;;;;344569;28;891;-82
2024/01/31 00:13:42;;;;;;;;;;;;;;;;;;342703;28;1503;-82
2024/01/31 00:13:52;;;;;;;;;;;;;;;;;;343211;28;982;-82
2024/01/31 00:14:06;;;;;;;;;;;;;;;;;;342730;28;1313;-82
2024/01/31 00:14:18;;;;;;;;;;;;;;;;;;343147;28;994;-82
2024/01/31 00:14:28;;;;;;;;;;;;;;;;;;342823;28;1613;-82
2024/01/31 00:14:38;;;;;;;;;;;;;;;;;;343129;28;982;-82
2024/01/31 00:14:48;;;;;;;;;;;;;;;;;;340565;29;1439;-82
2024/01/31 00:14:59;;;;;;;;;;;;;;;;;;343133;28;1319;-82
2024/01/31 00:15:09;;;;;;;;;;;;;;;;;;344011;28;1561;-82
2024/01/31 00:15:19;;;;;;;;;;;;;;;;;;344398;28;1434;-82
2024/01/31 00:15:29;;;;;;;;;;;;;;;;;;344364;28;986;-82
2024/01/31 00:15:40;;;;;;;;;;;;;;;;;;344230;28;1372;-82
2024/01/31 00:15:50;;;;;;;;;;;;;;;;;;342862;28;1478;-82
2024/01/31 00:16:00;;;;;;;;;;;;;;;;;;343146;28;1133;-82
2024/01/31 00:16:12;;;;;;;;;;;;;;;;;;342717;28;1430;-82
2024/01/31 00:16:23;;;;;;;;;;;;;;;;;;342884;28;1161;-82
2024/01/31 00:16:33;;;;;;;;;;;;;;;;;;339722;28;1380;-82
2024/01/31 00:16:44;;;;;;;;;;;;;;;;;;340239;29;1455;-82
2024/01/31 00:16:54;;;;;;;;;;;;;;;;;;342872;28;1195;-82
2024/01/31 00:17:04;;;;;;;;;;;;;;;;;;345537;28;1364;-82
2024/01/31 00:17:15;;;;;;;;;;;;;;;;;;345440;28;1316;-82
2024/01/31 00:17:25;;;;;;;;;;;;;;;;;;343683;28;1351;-82
2024/01/31 00:17:35;;;;;;;;;;;;;;;;;;341529;29;1248;-82
2024/01/31 00:17:45;;;;;;;;;;;;;;;;;;341610;29;1452;-82
2024/01/31 00:17:56;;;;;;;;;;;;;;;;;;342789;28;1312;-82
2024/01/31 00:18:06;;;;;;;;;;;;;;;;;;342885;28;1052;-82
2024/01/31 00:18:16;;;;;;;;;;;;;;;;;;342857;28;987;-82
2024/01/31 00:18:27;;;;;;;;;;;;;;;;;;345672;28;1459;-82
2024/01/31 00:18:37;;;;;;;;;;;;;;;;;;344360;28;1385;-82
2024/01/31 00:18:48;;;;;;;;;;;;;;;;;;345650;28;1415;-82
2024/01/31 00:18:58;;;;;;;;;;;;;;;;;;345497;28;1409;-82
2024/01/31 00:19:09;;;;;;;;;;;;;;;;;;345724;28;1327;-82
2024/01/31 00:19:19;;;;;;;;;;;;;;;;;;345616;28;978;-82
2024/01/31 00:19:29;;;;;;;;;;;;;;;;;;344411;28;1584;-82
2024/01/31 00:19:40;;;;;;;;;;;;;;;;;;343420;28;1169;-82
2024/01/31 00:19:50;;;;;;;;;;;;;;;;;;342798;28;1581;-82
2024/01/31 00:20:01;;;;;;;;;;;;;;;;;;342877;28;1163;-82
2024/01/31 00:20:11;;;;;;;;;;;;;;;;;;344281;28;1352;-82
2024/01/31 00:20:22;;;;;;;;;;;;;;;;;;342948;28;800;-82
2024/01/31 00:20:32;;;;;;;;;;;;;;;;;;343118;28;1589;-82
2024/01/31 00:20:42;;;;;;;;;;;;;;;;;;342857;28;1388;-82
2024/01/31 00:20:52;;;;;;;;;;;;;;;;;;340260;29;1538;-82
2024/01/31 00:21:03;;;;;;;;;;;;;;;;;;340193;29;1495;-82
2024/01/31 00:21:13;;;;;;;;;;;;;;;;;;340636;29;1903;-82
2024/01/31 00:21:23;;;;;;;;;;;;;;;;;;343887;28;1438;-82
2024/01/31 00:21:33;;;;;;;;;;;;;;;;;;343171;28;983;-82
2024/01/31 00:21:44;;;;;;;;;;;;;;;;;;343987;28;1343;-82
2024/01/31 00:21:54;;;;;;;;;;;;;;;;;;344469;28;1026;-82
2024/01/31 00:22:04;;;;;;;;;;;;;;;;;;345457;28;1511;-81
2024/01/31 00:22:14;;;;;;;;;;;;;;;;;;345819;28;966;-82
2024/01/31 00:22:24;;;;;;;;;;;;;;;;;;345778;28;1320;-82
2024/01/31 00:22:35;;;;;;;;;;;;;;;;;;344399;28;982;-82
2024/01/31 00:22:45;;;;;;;;;;;;;;;;;;346983;28;1358;-82
2024/01/31 00:22:55;;;;;;;;;;;;;;;;;;343601;28;1216;-82
2024/01/31 00:23:06;;;;;;;;;;;;;;;;;;342336;28;1615;-82
2024/01/31 00:23:18;;;;;;;;;;;;;;;;;;342943;28;1034;-82
2024/01/31 00:23:29;;;;;;;;;;;;;;;;;;344103;28;1423;-82
2024/01/31 00:23:39;;;;;;;;;;;;;;;;;;342403;28;1043;-82
2024/01/31 00:23:49;;;;;;;;;;;;;;;;;;342120;28;1399;-82
2024/01/31 00:23:59;;;;;;;;;;;;;;;;;;341751;29;1314;-83
2024/01/31 00:24:09;;;;;;;;;;;;;;;;;;342250;28;1340;-82
2024/01/31 00:24:20;;;;;;;;;;;;;;;;;;343080;28;971;-82
2024/01/31 00:24:30;;;;;;;;;;;;;;;;;;342962;28;1388;-82
2024/01/31 00:24:40;;;;;;;;;;;;;;;;;;342982;28;1026;-82
2024/01/31 00:24:50;;;;;;;;;;;;;;;;;;343793;28;1343;-82
2024/01/31 00:25:00;;;;;;;;;;;;;;;;;;344270;28;836;-82
2024/01/31 00:25:11;;;;;;;;;;;;;;;;;;343776;28;1363;-82
2024/01/31 00:25:21;;;;;;;;;;;;;;;;;;343927;28;1575;-82
2024/01/31 00:25:32;;;;;;;;;;;;;;;;;;343041;28;1372;-82
2024/01/31 00:25:42;;;;;;;;;;;;;;;;;;342838;28;1038;-82
2024/01/31 00:25:52;;;;;;;;;;;;;;;;;;343226;28;1333;-82
2024/01/31 00:26:02;;;;;;;;;;;;;;;;;;345566;28;1073;-82
2024/01/31 00:26:12;;;;;;;;;;;;;;;;;;344647;28;1307;-82
2024/01/31 00:26:23;;;;;;;;;;;;;;;;;;344210;28;943;-82
2024/01/31 00:26:33;;;;;;;;;;;;;;;;;;344561;28;1529;-82
2024/01/31 00:26:43;;;;;;;;;;;;;;;;;;344106;28;1197;-82
2024/01/31 00:26:53;;;;;;;;;;;;;;;;;;345786;28;1439;-82
2024/01/31 00:27:03;;;;;;;;;;;;;;;;;;341426;28;1308;-82
2024/01/31 00:27:14;;;;;;;;;;;;;;;;;;344016;28;1518;-82
2024/01/31 00:27:24;;;;;;;;;;;;;;;;;;342919;28;990;-82
2024/01/31 00:27:34;;;;;;;;;;;;;;;;;;344139;28;1387;-82
2024/01/31 00:27:44;;;;;;;;;;;;;;;;;;344011;28;1092;-82
2024/01/31 00:27:55;;;;;;;;;;;;;;;;;;345782;28;1481;-82
2024/01/31 00:28:05;;;;;;;;;;;;;;;;;;344224;28;1005;-82
2024/01/31 00:28:15;;;;;;;;;;;;;;;;;;344221;28;1403;-82
2024/01/31 00:28:25;;;;;;;;;;;;;;;;;;341574;29;1408;-82
2024/01/31 00:28:36;;;;;;;;;;;;;;;;;;341812;29;805;-82
2024/01/31 00:28:46;;;;;;;;;;;;;;;;;;341584;29;1014;-82
2024/01/31 00:28:56;;;;;;;;;;;;;;;;;;341684;29;1510;-82
2024/01/31 00:29:06;;;;;;;;;;;;;;;;;;341599;29;979;-82
2024/01/31 00:29:16;;;;;;;;;;;;;;;;;;341635;29;1515;-82
2024/01/31 00:29:27;;;;;;;;;;;;;;;;;;342846;28;1325;-82
2024/01/31 00:29:37;;;;;;;;;;;;;;;;;;343182;28;1527;-82
2024/01/31 00:29:47;;;;;;;;;;;;;;;;;;344206;28;1407;-82
2024/01/31 00:29:57;;;;;;;;;;;;;;;;;;344616;28;1473;-82
2024/01/31 00:30:10;;;;;;;;;;;;;;;;;;345523;28;1308;-82
2024/01/31 00:30:20;;;;;;;;;;;;;;;;;;344433;28;995;-83
2024/01/31 00:30:30;;;;;;;;;;;;;;;;;;345169;28;1335;-82
2024/01/31 00:30:40;;;;;;;;;;;;;;;;;;343841;28;966;-82
2024/01/31 00:30:51;;;;;;;;;;;;;;;;;;344205;28;1338;-82
2024/01/31 00:31:01;;;;;;;;;;;;;;;;;;346626;28;1180;-82
2024/01/31 00:31:11;;;;;;;;;;;;;;;;;;345487;28;1339;-82
2024/01/31 00:31:21;;;;;;;;;;;;;;;;;;345769;28;998;-82
2024/01/31 00:31:33;;;;;;;;;;;;;;;;;;342722;28;1438;-82
2024/01/31 00:31:43;;;;;;;;;;;;;;;;;;341804;29;971;-82
2024/01/31 00:31:53;;;;;;;;;;;;;;;;;;342654;28;1474;-83
2024/01/31 00:32:03;;;;;;;;;;;;;;;;;;343102;28;971;-82
2024/01/31 00:32:14;;;;;;;;;;;;;;;;;;342170;28;1312;-82
2024/01/31 00:32:24;;;;;;;;;;;;;;;;;;343175;28;1339;-82
2024/01/31 00:32:34;;;;;;;;;;;;;;;;;;343442;28;1328;-82
2024/01/31 00:32:44;;;;;;;;;;;;;;;;;;344538;28;824;-82
2024/01/31 00:32:55;;;;;;;;;;;;;;;;;;341379;29;1428;-82
2024/01/31 00:33:05;;;;;;;;;;;;;;;;;;340464;29;1551;-82
2024/01/31 00:33:15;;;;;;;;;;;;;;;;;;341578;29;1305;-82
2024/01/31 00:33:25;;;;;;;;;;;;;;;;;;342176;28;1488;-82
2024/01/31 00:33:35;;;;;;;;;;;;;;;;;;343010;28;1237;-82
2024/01/31 00:33:46;;;;;;;;;;;;;;;;;;342903;28;1002;-82
2024/01/31 00:33:56;;;;;;;;;;;;;;;;;;342962;28;1404;-82
2024/01/31 00:34:07;;;;;;;;;;;;;;;;;;341349;29;1291;-82
2024/01/31 00:34:17;;;;;;;;;;;;;;;;;;342538;28;1319;-82
2024/01/31 00:34:27;;;;;;;;;;;;;;;;;;344199;28;943;-82
2024/01/31 00:34:37;;;;;;;;;;;;;;;;;;344251;28;1363;-82
2024/01/31 00:34:48;;;;;;;;;;;;;;;;;;345382;28;1011;-82
2024/01/31 00:34:58;;;;;;;;;;;;;;;;;;345731;28;1604;-82
2024/01/31 00:35:08;;;;;;;;;;;;;;;;;;345582;28;1022;-82
2024/01/31 00:35:18;;;;;;;;;;;;;;;;;;345677;28;1382;-82
2024/01/31 00:35:28;;;;;;;;;;;;;;;;;;344193;28;975;-82
2024/01/31 00:35:39;;;;;;;;;;;;;;;;;;340307;29;1317;-82
2024/01/31 00:35:49;;;;;;;;;;;;;;;;;;340171;29;1036;-82
2024/01/31 00:35:59;;;;;;;;;;;;;;;;;;341531;28;1479;-82
2024/01/31 00:36:09;;;;;;;;;;;;;;;;;;341526;29;951;-82
2024/01/31 00:36:20;;;;;;;;;;;;;;;;;;342929;28;1610;-82
2024/01/31 00:36:30;;;;;;;;;;;;;;;;;;342807;28;1203;-82
2024/01/31 00:36:40;;;;;;;;;;;;;;;;;;342903;28;1475;-82
2024/01/31 00:36:50;;;;;;;;;;;;;;;;;;342767;28;1455;-82
2024/01/31 00:37:01;;;;;;;;;;;;;;;;;;343012;28;1351;-82
2024/01/31 00:37:11;;;;;;;;;;;;;;;;;;343027;28;887;-82
2024/01/31 00:37:21;;;;;;;;;;;;;;;;;;342929;28;1336;-82
2024/01/31 00:37:31;;;;;;;;;;;;;;;;;;342674;28;1213;-82
2024/01/31 00:37:41;;;;;;;;;;;;;;;;;;342437;28;1088;-82
2024/01/31 00:37:53;;;;;;;;;;;;;;;;;;345594;28;961;-82
2024/01/31 00:38:03;;;;;;;;;;;;;;;;;;345259;28;1354;-82
2024/01/31 00:38:13;;;;;;;;;;;;;;;;;;342811;28;1419;-82
2024/01/31 00:38:24;;;;;;;;;;;;;;;;;;343118;28;1026;-82
2024/01/31 00:38:34;;;;;;;;;;;;;;;;;;342907;28;1383;-82
2024/01/31 00:38:44;;;;;;;;;;;;;;;;;;341757;29;1034;-82
2024/01/31 00:38:54;;;;;;;;;;;;;;;;;;341775;28;1260;-82
2024/01/31 00:39:05;;;;;;;;;;;;;;;;;;342897;28;1349;-82
2024/01/31 00:39:15;;;;;;;;;;;;;;;;;;342662;28;1244;-82
2024/01/31 00:39:31;;;;;;;;;;;;;;;;;;341650;29;1317;-82
2024/01/31 00:39:41;;;;;;;;;;;;;;;;;;340146;29;1460;-82
2024/01/31 00:39:52;;;;;;;;;;;;;;;;;;340475;29;1053;-82
2024/01/31 00:40:05;;;;;;;;;;;;;;;;;;339984;29;1452;-82
2024/01/31 00:40:16;;;;;;;;;;;;;;;;;;341466;29;1840;-82
2024/01/31 00:40:26;;;;;;;;;;;;;;;;;;341634;29;1185;-82
2024/01/31 00:40:36;;;;;;;;;;;;;;;;;;341592;29;1357;-82
2024/01/31 00:40:46;;;;;;;;;;;;;;;;;;341479;29;1118;-82
2024/01/31 00:40:56;;;;;;;;;;;;;;;;;;343031;28;1407;-82
2024/01/31 00:41:07;;;;;;;;;;;;;;;;;;342756;28;1968;-82
2024/01/31 00:41:18;;;;;;;;;;;;;;;;;;343012;28;1328;-82
2024/01/31 00:41:29;;;;;;;;;;;;;;;;;;344269;28;978;-82
2024/01/31 00:41:40;;;;;;;;;;;;;;;;;;344239;28;1359;-82
2024/01/31 00:41:50;;;;;;;;;;;;;;;;;;344485;28;978;-82
2024/01/31 00:42:00;;;;;;;;;;;;;;;;;;344276;28;1356;-82
2024/01/31 00:42:10;;;;;;;;;;;;;;;;;;342905;28;1181;-82
2024/01/31 00:42:20;;;;;;;;;;;;;;;;;;344078;28;1214;-82
2024/01/31 00:42:31;;;;;;;;;;;;;;;;;;344224;28;1022;-82
2024/01/31 00:42:42;;;;;;;;;;;;;;;;;;344313;28;1526;-82
2024/01/31 00:42:52;;;;;;;;;;;;;;;;;;343707;28;970;-82
2024/01/31 00:43:03;;;;;;;;;;;;;;;;;;344343;28;1497;-81
2024/01/31 00:43:13;;;;;;;;;;;;;;;;;;344112;28;1189;-82
2024/01/31 00:43:23;;;;;;;;;;;;;;;;;;343947;28;1657;-82
2024/01/31 00:43:33;;;;;;;;;;;;;;;;;;345537;28;979;-82
2024/01/31 00:43:44;;;;;;;;;;;;;;;;;;344820;28;1406;-82
2024/01/31 00:43:54;;;;;;;;;;;;;;;;;;344951;28;1363;-82
2024/01/31 00:44:04;;;;;;;;;;;;;;;;;;344044;28;1125;-82
2024/01/31 00:44:15;;;;;;;;;;;;;;;;;;340189;29;1450;-82
2024/01/31 00:44:26;;;;;;;;;;;;;;;;;;341690;28;1348;-82
2024/01/31 00:44:36;;;;;;;;;;;;;;;;;;342798;28;1287;-82
2024/01/31 00:44:46;;;;;;;;;;;;;;;;;;341047;28;1352;-82
2024/01/31 00:44:56;;;;;;;;;;;;;;;;;;342766;28;1336;-82
2024/01/31 00:45:07;;;;;;;;;;;;;;;;;;344537;28;768;-81
2024/01/31 00:45:17;;;;;;;;;;;;;;;;;;344234;28;1335;-82
2024/01/31 00:45:28;;;;;;;;;;;;;;;;;;343061;28;1634;-82
2024/01/31 00:45:38;;;;;;;;;;;;;;;;;;341662;28;1547;-82
2024/01/31 00:45:48;;;;;;;;;;;;;;;;;;343060;28;1309;-82
2024/01/31 00:46:02;;;;;;;;;;;;;;;;;;344369;28;1301;-82
2024/01/31 00:46:12;;;;;;;;;;;;;;;;;;344423;28;1042;-82
2024/01/31 00:46:22;;;;;;;;;;;;;;;;;;344777;28;1407;-81
2024/01/31 00:46:32;;;;;;;;;;;;;;;;;;344492;28;844;-82
2024/01/31 00:46:44;;;;;;;;;;;;;;;;;;344281;28;1394;-82
2024/01/31 00:46:55;;;;;;;;;;;;;;;;;;341526;29;1343;-82
2024/01/31 00:47:05;;;;;;;;;;;;;;;;;;344000;28;1356;-82
2024/01/31 00:47:15;;;;;;;;;;;;;;;;;;344304;28;1047;-82
2024/01/31 00:47:25;;;;;;;;;;;;;;;;;;343519;28;1366;-82
2024/01/31 00:47:35;;;;;;;;;;;;;;;;;;343101;28;971;-81
2024/01/31 00:47:46;;;;;;;;;;;;;;;;;;341179;29;1281;-82
2024/01/31 00:47:56;;;;;;;;;;;;;;;;;;341600;29;1372;-82
2024/01/31 00:48:06;;;;;;;;;;;;;;;;;;341423;29;1197;-82
2024/01/31 00:48:17;;;;;;;;;;;;;;;;;;343149;28;879;-82
2024/01/31 00:48:27;;;;;;;;;;;;;;;;;;342753;28;1244;-82
2024/01/31 00:48:37;;;;;;;;;;;;;;;;;;343038;28;1127;-82
2024/01/31 00:48:47;;;;;;;;;;;;;;;;;;342660;28;1339;-81
2024/01/31 00:48:57;;;;;;;;;;;;;;;;;;344230;28;1264;-82
2024/01/31 00:49:08;;;;;;;;;;;;;;;;;;344136;28;1391;-82
2024/01/31 00:49:18;;;;;;;;;;;;;;;;;;344383;28;1177;-82
2024/01/31 00:49:28;;;;;;;;;;;;;;;;;;341435;29;1415;-82
2024/01/31 00:49:39;;;;;;;;;;;;;;;;;;342110;28;1332;-82
2024/01/31 00:49:49;;;;;;;;;;;;;;;;;;342900;28;1176;-82
2024/01/31 00:49:59;;;;;;;;;;;;;;;;;;340665;29;1328;-82
2024/01/31 00:50:12;;;;;;;;;;;;;;;;;;341506;29;1006;-82
2024/01/31 00:50:23;;;;;;;;;;;;;;;;;;341520;29;1383;-82
2024/01/31 00:50:33;;;;;;;;;;;;;;;;;;342531;28;1094;-82
2024/01/31 00:50:43;;;;;;;;;;;;;;;;;;342885;28;1388;-82
2024/01/31 00:50:53;;;;;;;;;;;;;;;;;;342872;28;936;-82
2024/01/31 00:51:07;;;;;;;;;;;;;;;;;;344244;28;1327;-82
2024/01/31 00:51:18;;;;;;;;;;;;;;;;;;345656;28;1439;-82
2024/01/31 00:51:28;;;;;;;;;;;;;;;;;;345633;28;1512;-82
2024/01/31 00:51:41;;;;;;;;;;;;;;;;;;345847;28;1319;-81
2024/01/31 00:51:52;;;;;;;;;;;;;;;;;;343654;28;1073;-82
2024/01/31 00:52:02;;;;;;;;;;;;;;;;;;346369;28;1445;-82
2024/01/31 00:52:12;;;;;;;;;;;;;;;;;;345363;28;1541;-81
2024/01/31 00:52:23;;;;;;;;;;;;;;;;;;345805;28;1315;-82
2024/01/31 00:52:33;;;;;;;;;;;;;;;;;;344227;28;844;-82
2024/01/31 00:52:43;;;;;;;;;;;;;;;;;;344463;28;1335;-82
2024/01/31 00:52:53;;;;;;;;;;;;;;;;;;344079;28;1335;-81
2024/01/31 00:53:03;;;;;;;;;;;;;;;;;;342990;28;1558;-82
2024/01/31 00:53:14;;;;;;;;;;;;;;;;;;342860;28;923;-82
2024/01/31 00:53:24;;;;;;;;;;;;;;;;;;342422;28;1410;-82
2024/01/31 00:53:35;;;;;;;;;;;;;;;;;;345389;28;994;-82
2024/01/31 00:53:45;;;;;;;;;;;;;;;;;;344118;28;1324;-82
2024/01/31 00:53:55;;;;;;;;;;;;;;;;;;345508;28;1082;-82
2024/01/31 00:54:06;;;;;;;;;;;;;;;;;;345668;28;1441;-82
2024/01/31 00:54:16;;;;;;;;;;;;;;;;;;344211;28;848;-82
2024/01/31 00:54:26;;;;;;;;;;;;;;;;;;344283;28;1390;-82
2024/01/31 00:54:36;;;;;;;;;;;;;;;;;;341663;29;1018;-82
2024/01/31 00:54:48;;;;;;;;;;;;;;;;;;344173;28;1388;-82
2024/01/31 00:54:58;;;;;;;;;;;;;;;;;;344334;28;1026;-82
2024/01/31 00:55:08;;;;;;;;;;;;;;;;;;344290;28;1632;-81
2024/01/31 00:55:19;;;;;;;;;;;;;;;;;;344345;28;1169;-82
2024/01/31 00:55:29;;;;;;;;;;;;;;;;;;344262;28;1323;-82
2024/01/31 00:55:39;;;;;;;;;;;;;;;;;;344294;28;1174;-81
2024/01/31 00:55:49;;;;;;;;;;;;;;;;;;345499;28;1338;-82
2024/01/31 00:55:59;;;;;;;;;;;;;;;;;;344383;28;1018;-82
2024/01/31 00:56:10;;;;;;;;;;;;;;;;;;344104;28;1513;-81
2024/01/31 00:56:20;;;;;;;;;;;;;;;;;;343072;28;1353;-81
2024/01/31 00:56:30;;;;;;;;;;;;;;;;;;344059;28;1585;-81
2024/01/31 00:56:40;;;;;;;;;;;;;;;;;;344064;28;1137;-81
2024/01/31 00:56:50;;;;;;;;;;;;;;;;;;344106;28;1509;-81
2024/01/31 00:57:01;;;;;;;;;;;;;;;;;;344300;28;1406;-81
2024/01/31 00:57:11;;;;;;;;;;;;;;;;;;344206;28;987;-82
2024/01/31 00:57:21;;;;;;;;;;;;;;;;;;344328;28;1368;-81
2024/01/31 00:57:31;;;;;;;;;;;;;;;;;;341459;28;1442;-82
2024/01/31 00:57:42;;;;;;;;;;;;;;;;;;341748;28;1340;-82
2024/01/31 00:57:52;;;;;;;;;;;;;;;;;;341513;29;951;-82
2024/01/31 00:58:02;;;;;;;;;;;;;;;;;;343151;28;1336;-81
2024/01/31 00:58:12;;;;;;;;;;;;;;;;;;344191;28;899;-81
2024/01/31 00:58:22;;;;;;;;;;;;;;;;;;344439;28;979;-82
2024/01/31 00:58:33;;;;;;;;;;;;;;;;;;345521;28;911;-82
2024/01/31 00:58:43;;;;;;;;;;;;;;;;;;343631;28;1391;-81
2024/01/31 00:58:54;;;;;;;;;;;;;;;;;;342294;28;777;-82
2024/01/31 00:59:04;;;;;;;;;;;;;;;;;;342955;28;1316;-82
2024/01/31 00:59:14;;;;;;;;;;;;;;;;;;342810;28;1293;-82
2024/01/31 00:59:24;;;;;;;;;;;;;;;;;;342991;28;1388;-81
2024/01/31 00:59:35;;;;;;;;;;;;;;;;;;342888;28;987;-82
2024/01/31 00:59:45;;;;;;;;;;;;;;;;;;342988;28;1376;-82
2024/01/31 00:59:55;;;;;;;;;;;;;;;;;;343101;28;1401;-82
2024/01/31 01:00:08;;;;;;;;;;;;;;;;;;342884;28;1368;-82
2024/01/31 01:00:21;;;;;;;;;;;;;;;;;;342726;28;1047;-82
2024/01/31 01:00:31;;;;;;;;;;;;;;;;;;344076;28;1458;-82
2024/01/31 01:00:41;;;;;;;;;;;;;;;;;;344229;28;975;-81
2024/01/31 01:00:51;;;;;;;;;;;;;;;;;;341907;28;1332;-82
2024/01/31 01:01:02;;;;;;;;;;;;;;;;;;341473;28;1019;-82
2024/01/31 01:01:12;;;;;;;;;;;;;;;;;;342840;28;1981;-82
2024/01/31 01:01:22;;;;;;;;;;;;;;;;;;342918;28;859;-82
2024/01/31 01:01:32;;;;;;;;;;;;;;;;;;342807;28;1533;-82
2024/01/31 01:01:43;;;;;;;;;;;;;;;;;;342839;28;963;-82
2024/01/31 01:01:53;;;;;;;;;;;;;;;;;;344821;28;1525;-82
2024/01/31 01:02:03;;;;;;;;;;;;;;;;;;344083;28;1421;-82
2024/01/31 01:02:13;;;;;;;;;;;;;;;;;;345658;28;1494;-82
2024/01/31 01:02:24;;;;;;;;;;;;;;;;;;345465;28;1033;-81
2024/01/31 01:02:36;;;;;;;;;;;;;;;;;;344399;28;1335;-82
2024/01/31 01:02:46;;;;;;;;;;;;;;;;;;344223;28;1335;-82
2024/01/31 01:02:56;;;;;;;;;;;;;;;;;;345063;28;1537;-82
2024/01/31 01:03:06;;;;;;;;;;;;;;;;;;341799;28;1496;-81
2024/01/31 01:03:17;;;;;;;;;;;;;;;;;;343077;28;1030;-81
2024/01/31 01:03:27;;;;;;;;;;;;;;;;;;340745;29;1586;-81
2024/01/31 01:03:37;;;;;;;;;;;;;;;;;;340283;29;872;-83
2024/01/31 01:03:47;;;;;;;;;;;;;;;;;;340630;29;1407;-82
2024/01/31 01:03:57;;;;;;;;;;;;;;;;;;341753;29;994;-82
2024/01/31 01:04:07;;;;;;;;;;;;;;;;;;342800;28;1316;-82
2024/01/31 01:04:18;;;;;;;;;;;;;;;;;;343076;28;978;-82
2024/01/31 01:04:28;;;;;;;;;;;;;;;;;;342785;28;1281;-82
2024/01/31 01:04:38;;;;;;;;;;;;;;;;;;343061;28;1266;-82
2024/01/31 01:04:48;;;;;;;;;;;;;;;;;;344715;28;1359;-81
2024/01/31 01:04:59;;;;;;;;;;;;;;;;;;345758;28;998;-81
2024/01/31 01:05:09;;;;;;;;;;;;;;;;;;343939;28;1311;-82
2024/01/31 01:05:20;;;;;;;;;;;;;;;;;;343005;28;1314;-82
2024/01/31 01:05:30;;;;;;;;;;;;;;;;;;342199;28;1336;-82
2024/01/31 01:05:40;;;;;;;;;;;;;;;;;;341727;29;1003;-82
2024/01/31 01:05:50;;;;;;;;;;;;;;;;;;338882;29;1348;-82
2024/01/31 01:06:01;;;;;;;;;;;;;;;;;;341691;29;1182;-81
2024/01/31 01:06:11;;;;;;;;;;;;;;;;;;341369;29;1380;-82
2024/01/31 01:06:21;;;;;;;;;;;;;;;;;;341668;29;1290;-81
2024/01/31 01:06:32;;;;;;;;;;;;;;;;;;341405;29;1404;-82
2024/01/31 01:06:42;;;;;;;;;;;;;;;;;;342927;28;1616;-81
2024/01/31 01:06:52;;;;;;;;;;;;;;;;;;342663;28;1378;-82
2024/01/31 01:07:02;;;;;;;;;;;;;;;;;;344407;28;1042;-82
2024/01/31 01:07:12;;;;;;;;;;;;;;;;;;343674;28;1430;-82
2024/01/31 01:07:23;;;;;;;;;;;;;;;;;;344365;28;919;-82
2024/01/31 01:07:34;;;;;;;;;;;;;;;;;;344388;28;1335;-82
2024/01/31 01:07:45;;;;;;;;;;;;;;;;;;344342;28;935;-82
2024/01/31 01:07:55;;;;;;;;;;;;;;;;;;343863;28;1459;-82
2024/01/31 01:08:06;;;;;;;;;;;;;;;;;;343023;28;1174;-82
2024/01/31 01:08:16;;;;;;;;;;;;;;;;;;339957;29;1352;-82
2024/01/31 01:08:26;;;;;;;;;;;;;;;;;;341029;29;1217;-82
2024/01/31 01:08:36;;;;;;;;;;;;;;;;;;341393;29;1612;-82
2024/01/31 01:08:46;;;;;;;;;;;;;;;;;;341312;29;1316;-82
2024/01/31 01:08:57;;;;;;;;;;;;;;;;;;341535;29;1260;-82
2024/01/31 01:09:07;;;;;;;;;;;;;;;;;;341534;29;1268;-82
2024/01/31 01:09:17;;;;;;;;;;;;;;;;;;341624;29;1589;-82
2024/01/31 01:09:28;;;;;;;;;;;;;;;;;;341419;28;1328;-82
2024/01/31 01:09:38;;;;;;;;;;;;;;;;;;341756;28;1363;-82
2024/01/31 01:09:48;;;;;;;;;;;;;;;;;;341405;29;1525;-82
2024/01/31 01:09:58;;;;;;;;;;;;;;;;;;344009;28;1466;-82
2024/01/31 01:10:09;;;;;;;;;;;;;;;;;;344171;28;796;-82
2024/01/31 01:10:19;;;;;;;;;;;;;;;;;;344340;28;1549;-82
2024/01/31 01:10:30;;;;;;;;;;;;;;;;;;342823;28;1586;-82
2024/01/31 01:10:40;;;;;;;;;;;;;;;;;;344443;28;915;-82
2024/01/31 01:10:51;;;;;;;;;;;;;;;;;;340057;29;1373;-82
2024/01/31 01:11:01;;;;;;;;;;;;;;;;;;341644;29;1257;-82
2024/01/31 01:11:11;;;;;;;;;;;;;;;;;;341432;29;1380;-82
2024/01/31 01:11:21;;;;;;;;;;;;;;;;;;341778;28;876;-82
2024/01/31 01:11:32;;;;;;;;;;;;;;;;;;342664;28;1340;-81
2024/01/31 01:11:42;;;;;;;;;;;;;;;;;;343026;28;1271;-82
2024/01/31 01:11:52;;;;;;;;;;;;;;;;;;343056;28;1419;-82
2024/01/31 01:12:02;;;;;;;;;;;;;;;;;;345669;28;1165;-82
2024/01/31 01:12:13;;;;;;;;;;;;;;;;;;344026;28;1363;-82
2024/01/31 01:12:23;;;;;;;;;;;;;;;;;;344479;28;1382;-82
2024/01/31 01:12:33;;;;;;;;;;;;;;;;;;345554;28;1250;-82
2024/01/31 01:12:43;;;;;;;;;;;;;;;;;;342979;28;1180;-82
2024/01/31 01:12:53;;;;;;;;;;;;;;;;;;341364;28;1317;-82
2024/01/31 01:13:04;;;;;;;;;;;;;;;;;;344432;28;959;-81
2024/01/31 01:13:14;;;;;;;;;;;;;;;;;;344577;28;1352;-82
2024/01/31 01:13:24;;;;;;;;;;;;;;;;;;344420;28;1130;-82
2024/01/31 01:13:35;;;;;;;;;;;;;;;;;;343312;28;1599;-81
2024/01/31 01:13:47;;;;;;;;;;;;;;;;;;345753;28;986;-82
2024/01/31 01:13:57;;;;;;;;;;;;;;;;;;345206;28;1477;-82